createdAt,value
2018-06-16T00:01:49.866Z,16.00
2018-06-16T00:06:46.539Z,15.80
2018-06-16T00:09:15.076Z,15.70
2018-06-16T00:11:43.571Z,15.70
2018-06-16T00:14:12.082Z,15.70
2018-06-16T00:16:40.615Z,15.80
2018-06-16T00:19:09.117Z,15.90
2018-06-16T00:21:37.639Z,15.90
2018-06-16T00:29:02.573Z,15.70
2018-06-16T00:31:31.071Z,15.50
2018-06-16T00:36:27.771Z,15.50
2018-06-16T00:38:56.293Z,15.50
2018-06-16T00:41:24.823Z,15.50
2018-06-16T00:43:53.347Z,15.50
2018-06-16T00:46:21.844Z,15.50
2018-06-16T00:48:50.357Z,15.50
2018-06-16T00:51:18.888Z,15.50
2018-06-16T00:53:47.413Z,15.50
2018-06-16T00:56:15.968Z,15.30
2018-06-16T00:58:44.518Z,15.20
2018-06-16T01:01:13.025Z,15.10
2018-06-16T01:03:41.512Z,15.10
2018-06-16T01:06:10.068Z,15.10
2018-06-16T01:08:38.583Z,15.10
2018-06-16T01:11:07.140Z,15.00
2018-06-16T01:13:35.648Z,14.90
2018-06-16T01:16:04.172Z,15.00
2018-06-16T01:18:32.682Z,14.90
2018-06-16T01:21:01.186Z,15.00
2018-06-16T01:23:29.674Z,14.90
2018-06-16T01:28:26.338Z,14.90
2018-06-16T01:30:54.830Z,14.90
2018-06-16T01:35:51.521Z,14.90
2018-06-16T01:38:20.047Z,14.90
2018-06-16T01:40:48.555Z,14.90
2018-06-16T01:43:17.090Z,14.90
2018-06-16T01:45:45.625Z,14.80
2018-06-16T01:48:14.113Z,14.70
2018-06-16T01:50:42.691Z,14.60
2018-06-16T01:53:11.203Z,14.60
2018-06-16T01:55:39.731Z,14.60
2018-06-16T01:58:08.269Z,14.60
2018-06-16T02:03:05.011Z,14.50
2018-06-16T02:05:33.520Z,14.50
2018-06-16T02:08:02.026Z,14.40
2018-06-16T02:10:30.559Z,14.30
2018-06-16T02:12:59.049Z,14.40
2018-06-16T02:15:27.556Z,14.40
2018-06-16T02:17:56.056Z,14.30
2018-06-16T02:20:24.528Z,14.20
2018-06-16T02:22:53.076Z,14.20
2018-06-16T02:25:21.566Z,14.20
2018-06-16T02:27:50.078Z,14.20
2018-06-16T02:30:18.632Z,14.30
2018-06-16T02:32:47.144Z,14.30
2018-06-16T02:35:15.648Z,14.30
2018-06-16T02:37:44.196Z,14.20
2018-06-16T02:40:12.668Z,14.20
2018-06-16T02:42:41.212Z,14.10
2018-06-16T02:45:09.748Z,14.00
2018-06-16T02:47:38.303Z,14.00
2018-06-16T02:50:06.839Z,14.00
2018-06-16T02:52:35.374Z,14.10
2018-06-16T02:57:32.021Z,14.00
2018-06-16T03:00:00.525Z,14.00
2018-06-16T03:02:29.039Z,13.90
2018-06-16T03:04:57.587Z,13.90
2018-06-16T03:07:26.083Z,13.90
2018-06-16T03:12:22.845Z,13.80
2018-06-16T03:17:19.545Z,13.70
2018-06-16T03:19:48.071Z,13.70
2018-06-16T03:22:16.597Z,13.70
2018-06-16T03:24:45.078Z,13.70
2018-06-16T03:27:13.579Z,13.70
2018-06-16T03:29:42.081Z,13.90
2018-06-16T03:32:10.575Z,14.00
2018-06-16T03:34:39.105Z,14.10
2018-06-16T03:39:35.769Z,14.10
2018-06-16T03:42:04.385Z,14.10
2018-06-16T03:44:32.916Z,14.10
2018-06-16T03:47:01.408Z,14.00
2018-06-16T03:49:29.915Z,13.80
2018-06-16T03:54:26.640Z,13.80
2018-06-16T03:56:55.163Z,13.80
2018-06-16T03:59:23.640Z,13.80
2018-06-16T04:01:52.208Z,13.80
2018-06-16T04:04:20.696Z,13.80
2018-06-16T04:06:49.196Z,13.80
2018-06-16T04:09:17.716Z,13.80
2018-06-16T04:11:46.207Z,13.80
2018-06-16T04:14:14.712Z,13.80
2018-06-16T04:16:43.252Z,13.80
2018-06-16T04:19:11.764Z,13.80
2018-06-16T04:21:40.291Z,13.70
2018-06-16T04:24:08.897Z,13.70
2018-06-16T04:26:37.398Z,13.80
2018-06-16T04:31:34.102Z,13.80
2018-06-16T04:34:02.632Z,13.80
2018-06-16T04:36:31.148Z,13.90
2018-06-16T04:41:27.849Z,13.90
2018-06-16T04:43:56.379Z,13.90
2018-06-16T04:46:24.882Z,13.90
2018-06-16T04:48:53.415Z,13.90
2018-06-16T04:51:21.951Z,13.90
2018-06-16T04:53:50.546Z,13.90
2018-06-16T04:56:19.093Z,13.90
2018-06-16T04:58:47.583Z,13.80
2018-06-16T05:01:16.083Z,13.80
2018-06-16T05:03:44.613Z,13.80
2018-06-16T05:06:13.110Z,13.80
2018-06-16T05:08:41.660Z,13.80
2018-06-16T05:11:10.195Z,13.80
2018-06-16T05:13:38.709Z,13.70
2018-06-16T05:16:07.205Z,13.80
2018-06-16T05:18:35.719Z,13.70
2018-06-16T05:21:04.496Z,13.70
2018-06-16T05:23:33.035Z,13.80
2018-06-16T05:26:01.524Z,13.70
2018-06-16T05:28:30.058Z,13.70
2018-06-16T05:33:26.771Z,13.60
2018-06-16T05:35:55.299Z,13.70
2018-06-16T05:38:23.854Z,13.70
2018-06-16T05:40:52.348Z,13.70
2018-06-16T05:43:20.859Z,13.80
2018-06-16T05:45:49.395Z,14.10
2018-06-16T05:48:17.905Z,14.50
2018-06-16T05:50:46.447Z,14.80
2018-06-16T05:53:14.974Z,15.20
2018-06-16T05:55:43.746Z,15.70
2018-06-16T05:58:12.291Z,16.00
2018-06-16T06:05:37.143Z,16.60
2018-06-16T06:08:05.715Z,16.80
2018-06-16T06:10:34.242Z,16.90
2018-06-16T06:13:02.762Z,17.20
2018-06-16T06:15:31.288Z,17.30
2018-06-16T06:20:27.940Z,17.60
2018-06-16T06:22:56.498Z,17.80
2018-06-16T06:25:25.035Z,18.00
2018-06-16T06:27:53.579Z,18.10
2018-06-16T06:30:22.099Z,18.10
2018-06-16T06:35:18.831Z,18.30
2018-06-16T06:37:47.376Z,18.40
2018-06-16T06:40:15.920Z,18.50
2018-06-16T06:42:44.483Z,18.50
2018-06-16T06:45:13.231Z,18.50
2018-06-16T06:47:41.766Z,18.60
2018-06-16T06:50:10.347Z,18.60
2018-06-16T06:52:38.875Z,18.70
2018-06-16T06:55:07.442Z,18.80
2018-06-16T06:57:35.967Z,19.00
2018-06-16T07:00:04.548Z,19.10
2018-06-16T07:02:33.116Z,19.10
2018-06-16T07:07:29.868Z,19.40
2018-06-16T07:09:58.396Z,19.50
2018-06-16T07:12:26.941Z,19.70
2018-06-16T07:14:55.480Z,19.70
2018-06-16T07:17:24.017Z,19.70
2018-06-16T07:19:52.544Z,19.80
2018-06-16T07:22:21.096Z,20.00
2018-06-16T07:24:49.630Z,20.10
2018-06-16T07:27:18.154Z,20.10
2018-06-16T07:29:46.761Z,20.20
2018-06-16T07:32:15.349Z,20.30
2018-06-16T07:34:43.937Z,20.20
2018-06-16T07:37:12.441Z,20.30
2018-06-16T07:42:09.220Z,20.50
2018-06-16T07:44:37.756Z,20.40
2018-06-16T07:47:06.353Z,20.50
2018-06-16T07:49:34.906Z,20.60
2018-06-16T07:52:03.465Z,20.80
2018-06-16T07:54:32.017Z,20.90
2018-06-16T07:57:00.629Z,21.10
2018-06-16T07:59:29.196Z,21.30
2018-06-16T08:01:57.939Z,21.40
2018-06-16T08:04:26.527Z,21.40
2018-06-16T08:06:55.366Z,21.70
2018-06-16T08:09:23.934Z,21.70
2018-06-16T08:11:52.650Z,21.80
2018-06-16T08:14:21.199Z,21.90
2018-06-16T08:16:49.781Z,22.10
2018-06-16T08:19:18.340Z,22.10
2018-06-16T08:21:46.885Z,22.20
2018-06-16T08:24:15.439Z,22.30
2018-06-16T08:26:44.029Z,22.20
2018-06-16T08:29:12.575Z,22.20
2018-06-16T08:34:09.396Z,22.30
2018-06-16T08:36:37.950Z,22.30
2018-06-16T08:39:08.924Z,22.40
2018-06-16T08:41:37.486Z,22.30
2018-06-16T08:44:06.215Z,22.50
2018-06-16T08:46:34.874Z,22.70
2018-06-16T08:49:03.392Z,22.90
2018-06-16T08:51:31.975Z,23.00
2018-06-16T08:54:00.617Z,23.00
2018-06-16T08:56:29.223Z,23.20
2018-06-16T08:58:57.779Z,23.20
2018-06-16T09:01:26.321Z,23.20
2018-06-16T09:03:54.875Z,23.00
2018-06-16T09:06:23.451Z,23.10
2018-06-16T09:08:51.983Z,23.10
2018-06-16T09:11:20.583Z,23.10
2018-06-16T09:13:49.098Z,23.30
2018-06-16T09:16:17.622Z,23.50
2018-06-16T09:18:46.209Z,23.70
2018-06-16T09:21:14.761Z,23.70
2018-06-16T09:26:11.493Z,24.00
2018-06-16T09:28:40.061Z,24.10
2018-06-16T09:31:08.676Z,24.10
2018-06-16T09:33:37.223Z,24.00
2018-06-16T09:36:05.802Z,23.80
2018-06-16T09:38:34.332Z,23.80
2018-06-16T09:41:02.866Z,23.70
2018-06-16T09:43:31.426Z,23.70
2018-06-16T09:46:00.033Z,23.80
2018-06-16T09:48:28.576Z,23.80
2018-06-16T09:50:57.090Z,24.00
2018-06-16T09:53:25.617Z,24.30
2018-06-16T09:55:54.177Z,24.30
2018-06-16T09:58:22.682Z,24.40
2018-06-16T10:00:51.214Z,24.40
2018-06-16T10:03:19.819Z,24.30
2018-06-16T10:05:48.333Z,24.20
2018-06-16T10:08:16.884Z,23.90
2018-06-16T10:10:45.508Z,24.10
2018-06-16T10:15:42.298Z,24.20
2018-06-16T10:18:10.891Z,24.30
2018-06-16T10:20:39.435Z,24.30
2018-06-16T10:23:07.947Z,24.60
2018-06-16T10:25:36.468Z,24.80
2018-06-16T10:28:05.026Z,24.90
2018-06-16T10:30:33.586Z,25.10
2018-06-16T10:33:02.210Z,25.40
2018-06-16T10:35:30.867Z,25.70
2018-06-16T10:37:59.434Z,25.70
2018-06-16T10:40:28.142Z,25.50
2018-06-16T10:45:24.985Z,25.60
2018-06-16T10:47:55.265Z,26.00
2018-06-16T10:50:23.801Z,26.30
2018-06-16T10:52:52.536Z,26.20
2018-06-16T10:55:21.076Z,26.00
2018-06-16T10:57:49.680Z,26.10
2018-06-16T11:00:18.301Z,26.20
2018-06-16T11:02:46.846Z,26.20
2018-06-16T11:05:15.452Z,26.60
2018-06-16T11:07:44.047Z,26.70
2018-06-16T11:12:40.866Z,26.90
2018-06-16T11:15:09.414Z,27.10
2018-06-16T11:17:38.042Z,27.10
2018-06-16T11:20:06.595Z,27.40
2018-06-16T11:22:35.168Z,27.50
2018-06-16T11:27:31.909Z,27.90
2018-06-16T11:30:00.463Z,27.90
2018-06-16T11:32:29.021Z,27.80
2018-06-16T11:34:57.572Z,27.60
2018-06-16T11:37:26.141Z,27.80
2018-06-16T11:39:54.685Z,27.90
2018-06-16T11:42:23.326Z,28.00
2018-06-16T11:44:51.981Z,28.20
2018-06-16T11:47:20.673Z,28.00
2018-06-16T11:49:49.213Z,28.10
2018-06-16T11:52:17.842Z,28.20
2018-06-16T11:54:46.380Z,28.40
2018-06-16T11:57:14.980Z,28.40
2018-06-16T12:02:11.737Z,28.00
2018-06-16T12:04:40.485Z,28.30
2018-06-16T12:07:09.025Z,28.50
2018-06-16T12:17:02.123Z,28.00
2018-06-16T12:19:30.649Z,28.10
2018-06-16T12:21:59.210Z,28.40
2018-06-16T12:24:27.758Z,28.20
2018-06-16T12:26:56.293Z,28.00
2018-06-16T12:31:53.060Z,28.40
2018-06-16T12:34:21.619Z,28.40
2018-06-16T12:36:50.245Z,28.50
2018-06-16T12:39:18.800Z,28.90
2018-06-16T12:41:47.333Z,29.00
2018-06-16T12:44:15.920Z,29.10
2018-06-16T12:46:44.494Z,29.00
2018-06-16T12:54:09.508Z,28.50
2018-06-16T12:56:38.127Z,28.40
2018-06-16T12:59:06.667Z,28.40
2018-06-16T13:01:35.219Z,28.50
2018-06-16T13:04:03.855Z,28.50
2018-06-16T13:06:32.409Z,28.40
2018-06-16T13:09:00.985Z,28.50
2018-06-16T13:11:29.546Z,28.10
2018-06-16T13:16:26.329Z,27.90
2018-06-16T13:18:54.959Z,28.00
2018-06-16T13:21:23.552Z,28.10
2018-06-16T13:23:52.193Z,28.10
2018-06-16T13:28:49.002Z,27.80
2018-06-16T13:31:17.600Z,28.00
2018-06-16T13:33:46.135Z,28.10
2018-06-16T13:38:42.899Z,28.20
2018-06-16T13:43:39.624Z,27.60
2018-06-16T13:46:08.160Z,27.40
2018-06-16T13:48:36.675Z,27.60
2018-06-16T13:51:05.246Z,27.50
2018-06-16T13:53:33.808Z,27.50
2018-06-16T13:58:30.594Z,27.80
2018-06-16T14:00:59.309Z,27.80
2018-06-16T14:03:27.867Z,27.90
2018-06-16T14:05:56.536Z,28.00
2018-06-16T14:08:25.166Z,28.20
2018-06-16T14:10:53.722Z,28.20
2018-06-16T14:13:22.261Z,28.20
2018-06-16T14:15:50.839Z,28.20
2018-06-16T14:18:19.420Z,28.20
2018-06-16T14:20:47.992Z,28.60
2018-06-16T14:23:16.525Z,28.60
2018-06-16T14:25:45.148Z,28.60
2018-06-16T14:28:13.701Z,28.50
2018-06-16T14:30:42.251Z,28.50
2018-06-16T14:33:10.879Z,28.50
2018-06-16T14:35:39.539Z,28.40
2018-06-16T14:38:08.089Z,28.30
2018-06-16T14:43:04.963Z,28.40
2018-06-16T14:45:33.579Z,28.30
2018-06-16T14:48:02.123Z,28.40
2018-06-16T14:52:59.141Z,28.30
2018-06-16T14:55:27.721Z,28.50
2018-06-16T14:57:56.294Z,28.80
2018-06-16T15:00:24.805Z,28.50
2018-06-16T15:02:53.388Z,28.40
2018-06-16T15:05:21.976Z,28.70
2018-06-16T15:07:50.544Z,29.20
2018-06-16T15:10:19.117Z,29.70
2018-06-16T15:15:15.855Z,30.00
2018-06-16T15:17:44.431Z,30.20
2018-06-16T15:20:12.971Z,30.00
2018-06-16T15:22:41.528Z,30.00
2018-06-16T15:25:10.124Z,30.10
2018-06-16T15:30:06.912Z,29.50
2018-06-16T15:32:35.565Z,29.10
2018-06-16T15:35:04.182Z,29.10
2018-06-16T15:37:32.830Z,29.00
2018-06-16T15:40:01.406Z,29.00
2018-06-16T15:42:30.011Z,28.60
2018-06-16T15:44:58.505Z,28.50
2018-06-16T15:47:27.051Z,27.80
2018-06-16T15:49:55.609Z,27.30
2018-06-16T15:52:24.146Z,26.90
2018-06-16T15:54:52.764Z,26.60
2018-06-16T15:57:21.488Z,26.10
2018-06-16T15:59:50.059Z,25.80
2018-06-16T16:02:18.602Z,25.80
2018-06-16T16:04:47.162Z,25.90
2018-06-16T16:07:15.695Z,26.20
2018-06-16T16:09:44.241Z,26.30
2018-06-16T16:12:12.819Z,26.30
2018-06-16T16:14:41.346Z,26.30
2018-06-16T16:17:09.886Z,26.10
2018-06-16T16:19:38.512Z,25.80
2018-06-16T16:22:07.109Z,25.60
2018-06-16T16:24:35.690Z,25.60
2018-06-16T16:27:04.349Z,25.50
2018-06-16T16:29:32.974Z,25.50
2018-06-16T16:32:01.493Z,25.60
2018-06-16T16:34:30.076Z,25.60
2018-06-16T16:36:58.611Z,25.50
2018-06-16T16:39:27.155Z,25.50
2018-06-16T16:41:55.701Z,25.50
2018-06-16T16:44:24.273Z,25.40
2018-06-16T16:46:52.876Z,25.40
2018-06-16T16:49:21.460Z,25.40
2018-06-16T16:51:50.023Z,25.40
2018-06-16T16:54:18.684Z,25.30
2018-06-16T16:56:47.211Z,25.20
2018-06-16T16:59:15.866Z,25.20
2018-06-16T17:01:44.440Z,25.20
2018-06-16T17:04:13.089Z,25.20
2018-06-16T17:06:41.674Z,25.00
2018-06-16T17:09:11.433Z,24.90
2018-06-16T17:11:40.096Z,24.90
2018-06-16T17:14:08.821Z,24.90
2018-06-16T17:16:37.512Z,24.80
2018-06-16T17:21:34.355Z,24.80
2018-06-16T17:24:02.908Z,24.80
2018-06-16T17:26:31.482Z,24.90
2018-06-16T17:29:00.057Z,24.90
2018-06-16T17:31:28.705Z,24.80
2018-06-16T17:33:57.225Z,24.80
2018-06-16T17:36:25.760Z,24.70
2018-06-16T17:38:54.364Z,24.70
2018-06-16T17:41:22.976Z,24.60
2018-06-16T17:43:51.841Z,24.40
2018-06-16T17:46:20.628Z,24.40
2018-06-16T17:48:49.543Z,24.20
2018-06-16T17:51:18.082Z,24.10
2018-06-16T17:53:46.653Z,23.90
2018-06-16T17:56:15.174Z,23.80
2018-06-16T17:58:44.169Z,23.70
2018-06-16T18:01:12.827Z,23.60
2018-06-16T18:03:41.630Z,23.50
2018-06-16T18:06:10.374Z,23.50
2018-06-16T18:08:39.361Z,23.40
2018-06-16T18:11:07.972Z,23.30
2018-06-16T18:13:36.586Z,23.20
2018-06-16T18:16:23.192Z,23.20
2018-06-16T18:18:51.870Z,23.20
2018-06-16T18:21:20.460Z,23.30
2018-06-16T18:23:49.044Z,23.30
2018-06-16T18:26:17.564Z,23.30
2018-06-16T18:28:46.093Z,23.20
2018-06-16T18:31:14.645Z,23.20
2018-06-16T18:33:43.191Z,23.10
2018-06-16T18:36:11.725Z,23.10
2018-06-16T18:38:40.280Z,23.10
2018-06-16T18:41:08.832Z,23.10
2018-06-16T18:43:37.335Z,23.00
2018-06-16T18:46:05.920Z,23.00
2018-06-16T18:48:34.439Z,23.00
2018-06-16T18:51:03.730Z,22.90
2018-06-16T18:53:32.239Z,22.90
2018-06-16T18:56:01.784Z,22.80
2018-06-16T18:58:30.352Z,22.70
2018-06-16T19:00:59.473Z,22.60
2018-06-16T19:03:28.000Z,22.50
2018-06-16T19:05:57.043Z,22.30
2018-06-16T19:08:25.926Z,22.10
2018-06-16T19:10:54.642Z,21.90
2018-06-16T19:13:23.423Z,21.80
2018-06-16T19:15:52.290Z,21.60
2018-06-16T19:18:21.290Z,21.50
2018-06-16T19:20:50.125Z,21.40
2018-06-16T19:25:47.240Z,21.30
2018-06-16T19:28:16.037Z,21.30
2018-06-16T19:30:44.902Z,21.20
2018-06-16T19:33:13.751Z,21.30
2018-06-16T19:35:42.540Z,21.30
2018-06-16T19:38:11.261Z,21.30
2018-06-16T19:40:39.946Z,21.30
2018-06-16T19:43:08.736Z,21.30
2018-06-16T19:45:37.284Z,21.30
2018-06-16T19:48:06.118Z,21.30
2018-06-16T19:50:34.876Z,21.20
2018-06-16T19:53:03.405Z,21.20
2018-06-16T19:58:00.096Z,21.00
2018-06-16T20:00:28.701Z,21.00
2018-06-16T20:02:57.258Z,21.00
2018-06-16T20:05:25.804Z,21.00
2018-06-16T20:07:54.303Z,20.90
2018-06-16T20:10:23.126Z,20.80
2018-06-16T20:12:52.169Z,20.70
2018-06-16T20:15:20.881Z,20.60
2018-06-16T20:17:49.645Z,20.60
2018-06-16T20:20:18.377Z,20.70
2018-06-16T20:25:15.678Z,20.60
2018-06-16T20:27:44.368Z,20.50
2018-06-16T20:30:13.112Z,20.50
2018-06-16T20:32:41.960Z,20.50
2018-06-16T20:35:10.741Z,20.50
2018-06-16T20:40:07.643Z,20.40
2018-06-16T20:42:36.207Z,20.40
2018-06-16T20:45:04.990Z,20.40
2018-06-16T20:47:33.528Z,20.40
2018-06-16T20:50:02.074Z,20.30
2018-06-16T20:52:30.576Z,20.30
2018-06-16T20:54:59.083Z,20.30
2018-06-16T20:57:27.590Z,20.30
2018-06-16T20:59:56.104Z,20.30
2018-06-16T21:04:52.755Z,20.20
2018-06-16T21:07:21.252Z,20.20
2018-06-16T21:12:18.107Z,20.10
2018-06-16T21:14:46.605Z,20.10
2018-06-16T21:19:43.668Z,20.20
2018-06-16T21:22:12.248Z,20.20
2018-06-16T21:24:40.790Z,20.10
2018-06-16T21:27:09.341Z,20.00
2018-06-16T21:29:37.906Z,19.90
2018-06-16T21:32:06.718Z,19.80
2018-06-16T21:34:35.373Z,19.80
2018-06-16T21:37:04.032Z,19.90
2018-06-16T21:39:32.531Z,20.00
2018-06-16T21:42:01.065Z,20.00
2018-06-16T21:44:29.618Z,20.00
2018-06-16T21:46:58.152Z,19.90
2018-06-16T21:59:19.425Z,19.80
2018-06-16T22:01:47.951Z,19.70
2018-06-16T22:04:16.482Z,19.70
2018-06-16T22:06:45.003Z,19.60
2018-06-16T22:09:13.534Z,19.50
2018-06-16T22:11:42.072Z,19.50
2018-06-16T22:16:38.761Z,19.30
2018-06-16T22:19:07.283Z,19.20
2018-06-16T22:21:35.796Z,19.10
2018-06-16T22:24:04.388Z,19.10
2018-06-16T22:26:32.896Z,19.10
2018-06-16T22:31:29.604Z,19.00
2018-06-16T22:33:58.153Z,18.90
2018-06-16T22:36:26.671Z,18.80
2018-06-16T22:38:55.203Z,18.70
2018-06-16T22:41:23.747Z,18.50
2018-06-16T22:43:52.236Z,18.40
2018-06-16T22:46:20.773Z,18.40
2018-06-16T22:48:49.333Z,18.40
2018-06-16T22:51:17.869Z,18.30
2018-06-16T22:53:46.378Z,18.30
2018-06-16T22:56:14.894Z,18.20
2018-06-16T22:58:43.413Z,18.20
2018-06-16T23:03:40.095Z,18.30
2018-06-16T23:06:08.783Z,18.30
2018-06-16T23:08:37.321Z,18.30
2018-06-16T23:11:05.836Z,18.30
2018-06-16T23:16:02.565Z,18.10
2018-06-16T23:18:32.004Z,18.10
2018-06-16T23:21:00.540Z,18.10
2018-06-16T23:23:29.295Z,18.00
2018-06-16T23:28:25.988Z,18.10
2018-06-16T23:30:54.512Z,18.00
2018-06-16T23:33:23.035Z,18.00
2018-06-16T23:35:51.575Z,17.80
2018-06-16T23:38:20.128Z,17.70
2018-06-16T23:40:48.640Z,17.50
2018-06-16T23:43:17.152Z,17.50
2018-06-16T23:45:45.720Z,17.60
2018-06-16T23:48:14.277Z,17.70
2018-06-16T23:50:42.825Z,17.70
2018-06-16T23:53:11.375Z,17.80
2018-06-16T23:55:39.907Z,17.70
